sensor_id;sensor_type;location;lat;lon;timestamp;P1;durP1;ratioP1;P2;durP2;ratioP2
66298;SDS011;53098;47.658;8.578;2022-07-29T00:01:48;4.40;;;1.85;;
66298;SDS011;53098;47.658;8.578;2022-07-29T00:04:13;5.63;;;1.83;;
66298;SDS011;53098;47.658;8.578;2022-07-29T00:06:38;5.57;;;1.80;;
66298;SDS011;53098;47.658;8.578;2022-07-29T00:09:04;5.60;;;2.00;;
66298;SDS011;53098;47.658;8.578;2022-07-29T00:11:29;4.07;;;2.00;;
66298;SDS011;53098;47.658;8.578;2022-07-29T00:13:54;4.77;;;2.20;;
66298;SDS011;53098;47.658;8.578;2022-07-29T00:16:19;6.27;;;2.17;;
66298;SDS011;53098;47.658;8.578;2022-07-29T00:18:45;4.18;;;1.90;;
66298;SDS011;53098;47.658;8.578;2022-07-29T00:21:10;5.03;;;2.30;;
66298;SDS011;53098;47.658;8.578;2022-07-29T00:23:35;3.63;;;1.73;;
66298;SDS011;53098;47.658;8.578;2022-07-29T00:26:01;4.83;;;2.00;;
66298;SDS011;53098;47.658;8.578;2022-07-29T00:28:26;4.17;;;1.83;;
66298;SDS011;53098;47.658;8.578;2022-07-29T00:30:51;4.37;;;1.90;;
66298;SDS011;53098;47.658;8.578;2022-07-29T00:33:16;4.63;;;2.00;;
66298;SDS011;53098;47.658;8.578;2022-07-29T00:35:42;4.17;;;1.90;;
66298;SDS011;53098;47.658;8.578;2022-07-29T00:38:07;4.15;;;2.03;;
66298;SDS011;53098;47.658;8.578;2022-07-29T00:40:32;4.83;;;2.17;;
66298;SDS011;53098;47.658;8.578;2022-07-29T00:42:58;4.23;;;1.87;;
66298;SDS011;53098;47.658;8.578;2022-07-29T00:45:23;4.67;;;1.70;;
66298;SDS011;53098;47.658;8.578;2022-07-29T00:47:48;4.90;;;2.07;;
66298;SDS011;53098;47.658;8.578;2022-07-29T00:50:14;6.00;;;1.98;;
66298;SDS011;53098;47.658;8.578;2022-07-29T00:52:40;3.05;;;1.73;;
66298;SDS011;53098;47.658;8.578;2022-07-29T00:55:07;5.03;;;2.00;;
66298;SDS011;53098;47.658;8.578;2022-07-29T00:57:34;4.63;;;2.08;;
66298;SDS011;53098;47.658;8.578;2022-07-29T00:59:59;4.70;;;1.98;;
66298;SDS011;53098;47.658;8.578;2022-07-29T01:02:24;5.47;;;1.97;;
66298;SDS011;53098;47.658;8.578;2022-07-29T01:04:50;4.75;;;2.05;;
66298;SDS011;53098;47.658;8.578;2022-07-29T01:07:15;5.43;;;2.13;;
66298;SDS011;53098;47.658;8.578;2022-07-29T01:09:41;3.20;;;1.73;;
66298;SDS011;53098;47.658;8.578;2022-07-29T01:12:07;4.63;;;1.77;;
66298;SDS011;53098;47.658;8.578;2022-07-29T01:14:32;4.13;;;1.95;;
66298;SDS011;53098;47.658;8.578;2022-07-29T01:17:06;6.50;;;1.83;;
66298;SDS011;53098;47.658;8.578;2022-07-29T01:28:01;4.90;;;1.92;;
66298;SDS011;53098;47.658;8.578;2022-07-29T01:30:33;5.10;;;2.10;;
66298;SDS011;53098;47.658;8.578;2022-07-29T01:33:01;5.93;;;2.15;;
66298;SDS011;53098;47.658;8.578;2022-07-29T01:35:33;5.10;;;2.15;;
66298;SDS011;53098;47.658;8.578;2022-07-29T01:38:17;4.47;;;2.28;;
66298;SDS011;53098;47.658;8.578;2022-07-29T01:40:46;5.03;;;2.05;;
66298;SDS011;53098;47.658;8.578;2022-07-29T01:43:15;6.00;;;2.10;;
66298;SDS011;53098;47.658;8.578;2022-07-29T01:48:16;5.03;;;1.55;;
66298;SDS011;53098;47.658;8.578;2022-07-29T01:50:58;4.95;;;2.22;;
66298;SDS011;53098;47.658;8.578;2022-07-29T01:53:29;4.97;;;2.00;;
66298;SDS011;53098;47.658;8.578;2022-07-29T01:55:56;4.07;;;1.80;;
66298;SDS011;53098;47.658;8.578;2022-07-29T01:58:22;4.53;;;2.05;;
66298;SDS011;53098;47.658;8.578;2022-07-29T02:00:48;4.70;;;2.13;;
66298;SDS011;53098;47.658;8.578;2022-07-29T02:03:14;4.47;;;1.85;;
66298;SDS011;53098;47.658;8.578;2022-07-29T02:05:41;4.38;;;1.83;;
66298;SDS011;53098;47.658;8.578;2022-07-29T02:08:07;4.50;;;2.00;;
66298;SDS011;53098;47.658;8.578;2022-07-29T02:10:33;4.78;;;2.25;;
66298;SDS011;53098;47.658;8.578;2022-07-29T02:12:59;3.70;;;1.75;;
66298;SDS011;53098;47.658;8.578;2022-07-29T02:15:25;4.30;;;1.85;;
66298;SDS011;53098;47.658;8.578;2022-07-29T02:17:56;3.70;;;1.70;;
66298;SDS011;53098;47.658;8.578;2022-07-29T02:20:23;5.97;;;2.15;;
66298;SDS011;53098;47.658;8.578;2022-07-29T02:22:50;4.18;;;2.03;;
66298;SDS011;53098;47.658;8.578;2022-07-29T02:25:16;5.25;;;2.00;;
66298;SDS011;53098;47.658;8.578;2022-07-29T02:27:42;5.88;;;2.10;;
66298;SDS011;53098;47.658;8.578;2022-07-29T02:30:07;4.47;;;2.03;;
66298;SDS011;53098;47.658;8.578;2022-07-29T02:32:34;5.75;;;2.20;;
66298;SDS011;53098;47.658;8.578;2022-07-29T02:35:00;5.50;;;2.00;;
66298;SDS011;53098;47.658;8.578;2022-07-29T02:37:26;7.40;;;2.30;;
66298;SDS011;53098;47.658;8.578;2022-07-29T02:39:52;3.78;;;2.05;;
66298;SDS011;53098;47.658;8.578;2022-07-29T02:42:18;6.55;;;2.42;;
66298;SDS011;53098;47.658;8.578;2022-07-29T02:44:45;4.20;;;1.90;;
66298;SDS011;53098;47.658;8.578;2022-07-29T02:47:22;6.07;;;2.10;;
66298;SDS011;53098;47.658;8.578;2022-07-29T02:52:33;5.20;;;2.13;;
66298;SDS011;53098;47.658;8.578;2022-07-29T02:55:01;4.85;;;2.05;;
66298;SDS011;53098;47.658;8.578;2022-07-29T02:59:52;7.50;;;2.40;;
66298;SDS011;53098;47.658;8.578;2022-07-29T03:02:17;5.28;;;2.40;;
66298;SDS011;53098;47.658;8.578;2022-07-29T03:04:43;5.18;;;2.40;;
66298;SDS011;53098;47.658;8.578;2022-07-29T03:07:13;7.35;;;2.25;;
66298;SDS011;53098;47.658;8.578;2022-07-29T03:09:40;3.53;;;1.80;;
66298;SDS011;53098;47.658;8.578;2022-07-29T03:12:06;5.32;;;2.40;;
66298;SDS011;53098;47.658;8.578;2022-07-29T03:14:31;7.07;;;2.40;;
66298;SDS011;53098;47.658;8.578;2022-07-29T03:16:57;4.90;;;2.25;;
66298;SDS011;53098;47.658;8.578;2022-07-29T03:19:22;4.40;;;2.10;;
66298;SDS011;53098;47.658;8.578;2022-07-29T03:21:47;8.23;;;2.45;;
66298;SDS011;53098;47.658;8.578;2022-07-29T03:24:26;6.30;;;2.15;;
66298;SDS011;53098;47.658;8.578;2022-07-29T03:26:51;6.50;;;2.22;;
66298;SDS011;53098;47.658;8.578;2022-07-29T03:29:17;5.43;;;2.27;;
66298;SDS011;53098;47.658;8.578;2022-07-29T03:31:42;6.53;;;2.20;;
66298;SDS011;53098;47.658;8.578;2022-07-29T03:34:07;5.17;;;2.10;;
66298;SDS011;53098;47.658;8.578;2022-07-29T03:36:32;6.10;;;2.03;;
66298;SDS011;53098;47.658;8.578;2022-07-29T03:38:58;5.27;;;1.97;;
66298;SDS011;53098;47.658;8.578;2022-07-29T03:41:24;5.47;;;2.20;;
66298;SDS011;53098;47.658;8.578;2022-07-29T03:43:49;5.20;;;2.22;;
66298;SDS011;53098;47.658;8.578;2022-07-29T03:46:16;4.75;;;2.10;;
66298;SDS011;53098;47.658;8.578;2022-07-29T03:48:44;6.55;;;2.17;;
66298;SDS011;53098;47.658;8.578;2022-07-29T03:51:11;5.60;;;2.30;;
66298;SDS011;53098;47.658;8.578;2022-07-29T03:53:37;7.38;;;2.53;;
66298;SDS011;53098;47.658;8.578;2022-07-29T03:56:02;5.70;;;2.10;;
66298;SDS011;53098;47.658;8.578;2022-07-29T03:58:28;6.32;;;2.60;;
66298;SDS011;53098;47.658;8.578;2022-07-29T04:00:55;7.25;;;2.33;;
66298;SDS011;53098;47.658;8.578;2022-07-29T04:03:21;4.82;;;2.17;;
66298;SDS011;53098;47.658;8.578;2022-07-29T04:05:57;5.28;;;2.03;;
66298;SDS011;53098;47.658;8.578;2022-07-29T04:08:22;4.78;;;2.13;;
66298;SDS011;53098;47.658;8.578;2022-07-29T04:10:48;6.87;;;2.20;;
66298;SDS011;53098;47.658;8.578;2022-07-29T04:13:13;5.63;;;2.30;;
66298;SDS011;53098;47.658;8.578;2022-07-29T04:15:38;7.13;;;2.35;;
66298;SDS011;53098;47.658;8.578;2022-07-29T04:18:04;5.27;;;2.00;;
66298;SDS011;53098;47.658;8.578;2022-07-29T04:20:29;5.67;;;2.17;;
66298;SDS011;53098;47.658;8.578;2022-07-29T04:22:54;6.50;;;2.13;;
66298;SDS011;53098;47.658;8.578;2022-07-29T04:25:20;6.53;;;2.40;;
66298;SDS011;53098;47.658;8.578;2022-07-29T04:27:45;6.97;;;2.20;;
66298;SDS011;53098;47.658;8.578;2022-07-29T04:30:10;6.50;;;2.50;;
66298;SDS011;53098;47.658;8.578;2022-07-29T04:32:35;5.25;;;2.42;;
66298;SDS011;53098;47.658;8.578;2022-07-29T04:35:01;5.40;;;2.50;;
66298;SDS011;53098;47.658;8.578;2022-07-29T04:37:26;4.13;;;1.93;;
66298;SDS011;53098;47.658;8.578;2022-07-29T04:39:51;4.87;;;2.23;;
66298;SDS011;53098;47.658;8.578;2022-07-29T04:42:17;4.72;;;2.25;;
66298;SDS011;53098;47.658;8.578;2022-07-29T04:44:42;6.30;;;2.33;;
66298;SDS011;53098;47.658;8.578;2022-07-29T04:47:07;6.47;;;2.67;;
66298;SDS011;53098;47.658;8.578;2022-07-29T04:49:39;5.50;;;2.23;;
66298;SDS011;53098;47.658;8.578;2022-07-29T04:52:05;8.10;;;2.28;;
66298;SDS011;53098;47.658;8.578;2022-07-29T04:54:30;6.63;;;2.22;;
66298;SDS011;53098;47.658;8.578;2022-07-29T04:56:56;6.90;;;2.58;;
66298;SDS011;53098;47.658;8.578;2022-07-29T04:59:21;6.87;;;2.40;;
66298;SDS011;53098;47.658;8.578;2022-07-29T05:01:46;4.27;;;1.90;;
66298;SDS011;53098;47.658;8.578;2022-07-29T05:04:11;5.63;;;2.10;;
66298;SDS011;53098;47.658;8.578;2022-07-29T05:06:37;7.87;;;2.57;;
66298;SDS011;53098;47.658;8.578;2022-07-29T05:09:02;5.53;;;2.43;;
66298;SDS011;53098;47.658;8.578;2022-07-29T05:11:27;3.85;;;1.83;;
66298;SDS011;53098;47.658;8.578;2022-07-29T05:13:53;6.33;;;2.87;;
66298;SDS011;53098;47.658;8.578;2022-07-29T05:16:18;5.43;;;2.30;;
66298;SDS011;53098;47.658;8.578;2022-07-29T05:18:43;6.60;;;2.50;;
66298;SDS011;53098;47.658;8.578;2022-07-29T05:21:08;4.83;;;2.00;;
66298;SDS011;53098;47.658;8.578;2022-07-29T05:23:34;7.20;;;2.50;;
66298;SDS011;53098;47.658;8.578;2022-07-29T05:25:59;6.00;;;2.43;;
66298;SDS011;53098;47.658;8.578;2022-07-29T05:28:24;5.75;;;2.50;;
66298;SDS011;53098;47.658;8.578;2022-07-29T05:30:50;7.60;;;2.60;;
66298;SDS011;53098;47.658;8.578;2022-07-29T05:33:15;6.73;;;2.40;;
66298;SDS011;53098;47.658;8.578;2022-07-29T05:35:40;6.47;;;2.10;;
66298;SDS011;53098;47.658;8.578;2022-07-29T05:38:06;5.63;;;2.45;;
66298;SDS011;53098;47.658;8.578;2022-07-29T05:40:31;4.47;;;2.33;;
66298;SDS011;53098;47.658;8.578;2022-07-29T05:42:56;6.38;;;2.50;;
66298;SDS011;53098;47.658;8.578;2022-07-29T05:45:22;6.55;;;2.30;;
66298;SDS011;53098;47.658;8.578;2022-07-29T05:47:47;5.50;;;2.43;;
66298;SDS011;53098;47.658;8.578;2022-07-29T05:50:12;7.50;;;2.87;;
66298;SDS011;53098;47.658;8.578;2022-07-29T05:52:38;6.30;;;2.50;;
66298;SDS011;53098;47.658;8.578;2022-07-29T05:55:03;6.13;;;2.47;;
66298;SDS011;53098;47.658;8.578;2022-07-29T05:57:28;7.68;;;2.78;;
66298;SDS011;53098;47.658;8.578;2022-07-29T05:59:54;8.30;;;2.63;;
66298;SDS011;53098;47.658;8.578;2022-07-29T06:02:19;7.53;;;2.70;;
66298;SDS011;53098;47.658;8.578;2022-07-29T06:04:44;5.78;;;2.50;;
66298;SDS011;53098;47.658;8.578;2022-07-29T06:07:10;5.97;;;2.63;;
66298;SDS011;53098;47.658;8.578;2022-07-29T06:09:35;6.60;;;2.90;;
66298;SDS011;53098;47.658;8.578;2022-07-29T06:12:00;6.87;;;2.50;;
66298;SDS011;53098;47.658;8.578;2022-07-29T06:14:26;7.32;;;2.92;;
66298;SDS011;53098;47.658;8.578;2022-07-29T06:16:51;8.00;;;2.50;;
66298;SDS011;53098;47.658;8.578;2022-07-29T06:19:16;6.32;;;2.42;;
66298;SDS011;53098;47.658;8.578;2022-07-29T06:21:42;5.60;;;2.47;;
66298;SDS011;53098;47.658;8.578;2022-07-29T06:24:07;5.70;;;2.75;;
66298;SDS011;53098;47.658;8.578;2022-07-29T06:26:33;10.07;;;2.90;;
66298;SDS011;53098;47.658;8.578;2022-07-29T06:28:58;7.90;;;2.80;;
66298;SDS011;53098;47.658;8.578;2022-07-29T06:31:23;7.83;;;2.57;;
66298;SDS011;53098;47.658;8.578;2022-07-29T06:33:49;6.18;;;2.35;;
66298;SDS011;53098;47.658;8.578;2022-07-29T06:36:14;7.47;;;2.77;;
66298;SDS011;53098;47.658;8.578;2022-07-29T06:38:39;5.67;;;2.50;;
66298;SDS011;53098;47.658;8.578;2022-07-29T06:41:04;5.57;;;2.27;;
66298;SDS011;53098;47.658;8.578;2022-07-29T06:43:37;5.03;;;2.20;;
66298;SDS011;53098;47.658;8.578;2022-07-29T06:46:03;8.13;;;2.10;;
66298;SDS011;53098;47.658;8.578;2022-07-29T06:48:29;5.82;;;1.83;;
66298;SDS011;53098;47.658;8.578;2022-07-29T06:50:55;3.60;;;1.60;;
66298;SDS011;53098;47.658;8.578;2022-07-29T06:53:20;4.87;;;2.00;;
66298;SDS011;53098;47.658;8.578;2022-07-29T06:55:45;6.60;;;1.87;;
66298;SDS011;53098;47.658;8.578;2022-07-29T06:58:10;5.50;;;2.13;;
66298;SDS011;53098;47.658;8.578;2022-07-29T07:00:36;7.00;;;2.20;;
66298;SDS011;53098;47.658;8.578;2022-07-29T07:03:04;5.55;;;2.38;;
66298;SDS011;53098;47.658;8.578;2022-07-29T07:05:29;8.20;;;1.90;;
66298;SDS011;53098;47.658;8.578;2022-07-29T07:07:55;7.13;;;2.07;;
66298;SDS011;53098;47.658;8.578;2022-07-29T07:10:20;8.97;;;2.33;;
66298;SDS011;53098;47.658;8.578;2022-07-29T07:12:45;5.33;;;2.50;;
66298;SDS011;53098;47.658;8.578;2022-07-29T07:15:10;6.77;;;1.87;;
66298;SDS011;53098;47.658;8.578;2022-07-29T07:17:36;5.63;;;2.40;;
66298;SDS011;53098;47.658;8.578;2022-07-29T07:20:01;5.22;;;2.22;;
66298;SDS011;53098;47.658;8.578;2022-07-29T07:22:26;7.70;;;2.10;;
66298;SDS011;53098;47.658;8.578;2022-07-29T07:24:52;8.43;;;2.10;;
66298;SDS011;53098;47.658;8.578;2022-07-29T07:27:17;6.63;;;2.23;;
66298;SDS011;53098;47.658;8.578;2022-07-29T07:29:43;5.13;;;2.05;;
66298;SDS011;53098;47.658;8.578;2022-07-29T07:32:08;6.20;;;2.35;;
66298;SDS011;53098;47.658;8.578;2022-07-29T07:34:34;9.50;;;2.73;;
66298;SDS011;53098;47.658;8.578;2022-07-29T07:36:59;6.82;;;2.47;;
66298;SDS011;53098;47.658;8.578;2022-07-29T07:39:25;7.73;;;2.20;;
66298;SDS011;53098;47.658;8.578;2022-07-29T07:41:50;6.57;;;2.40;;
66298;SDS011;53098;47.658;8.578;2022-07-29T07:44:15;4.47;;;2.10;;
66298;SDS011;53098;47.658;8.578;2022-07-29T07:46:41;9.60;;;2.50;;
66298;SDS011;53098;47.658;8.578;2022-07-29T07:49:06;9.40;;;2.40;;
66298;SDS011;53098;47.658;8.578;2022-07-29T07:51:31;6.23;;;2.10;;
66298;SDS011;53098;47.658;8.578;2022-07-29T07:53:56;6.00;;;2.30;;
66298;SDS011;53098;47.658;8.578;2022-07-29T07:56:22;6.73;;;2.13;;
66298;SDS011;53098;47.658;8.578;2022-07-29T07:58:47;6.93;;;1.93;;
66298;SDS011;53098;47.658;8.578;2022-07-29T08:01:12;4.57;;;1.90;;
66298;SDS011;53098;47.658;8.578;2022-07-29T08:03:38;5.88;;;1.95;;
66298;SDS011;53098;47.658;8.578;2022-07-29T08:06:03;7.05;;;2.10;;
66298;SDS011;53098;47.658;8.578;2022-07-29T08:08:28;5.30;;;1.92;;
66298;SDS011;53098;47.658;8.578;2022-07-29T08:10:54;5.25;;;1.83;;
66298;SDS011;53098;47.658;8.578;2022-07-29T08:13:20;5.43;;;1.83;;
66298;SDS011;53098;47.658;8.578;2022-07-29T08:15:46;6.45;;;1.88;;
66298;SDS011;53098;47.658;8.578;2022-07-29T08:18:11;8.67;;;2.30;;
66298;SDS011;53098;47.658;8.578;2022-07-29T08:20:37;4.30;;;2.00;;
66298;SDS011;53098;47.658;8.578;2022-07-29T08:23:02;5.03;;;2.13;;
66298;SDS011;53098;47.658;8.578;2022-07-29T08:25:28;4.32;;;2.13;;
66298;SDS011;53098;47.658;8.578;2022-07-29T08:27:53;7.10;;;2.38;;
66298;SDS011;53098;47.658;8.578;2022-07-29T08:30:19;6.25;;;1.70;;
66298;SDS011;53098;47.658;8.578;2022-07-29T08:32:44;4.82;;;1.83;;
66298;SDS011;53098;47.658;8.578;2022-07-29T08:35:09;5.73;;;2.20;;
66298;SDS011;53098;47.658;8.578;2022-07-29T08:37:35;4.73;;;2.00;;
66298;SDS011;53098;47.658;8.578;2022-07-29T08:40:00;7.23;;;2.20;;
66298;SDS011;53098;47.658;8.578;2022-07-29T08:42:25;7.90;;;2.20;;
66298;SDS011;53098;47.658;8.578;2022-07-29T08:44:51;5.53;;;2.22;;
66298;SDS011;53098;47.658;8.578;2022-07-29T08:47:16;6.43;;;2.30;;
66298;SDS011;53098;47.658;8.578;2022-07-29T08:49:42;6.65;;;2.00;;
66298;SDS011;53098;47.658;8.578;2022-07-29T08:52:09;4.22;;;2.13;;
66298;SDS011;53098;47.658;8.578;2022-07-29T08:54:35;4.53;;;2.25;;
66298;SDS011;53098;47.658;8.578;2022-07-29T08:57:00;5.10;;;2.10;;
66298;SDS011;53098;47.658;8.578;2022-07-29T08:59:26;5.97;;;2.20;;
66298;SDS011;53098;47.658;8.578;2022-07-29T09:01:52;5.75;;;2.05;;
66298;SDS011;53098;47.658;8.578;2022-07-29T09:04:18;5.45;;;2.42;;
66298;SDS011;53098;47.658;8.578;2022-07-29T09:06:44;9.07;;;2.50;;
66298;SDS011;53098;47.658;8.578;2022-07-29T09:09:11;6.05;;;2.28;;
66298;SDS011;53098;47.658;8.578;2022-07-29T09:11:36;7.68;;;2.42;;
66298;SDS011;53098;47.658;8.578;2022-07-29T09:14:02;4.95;;;2.38;;
66298;SDS011;53098;47.658;8.578;2022-07-29T09:16:43;6.20;;;2.30;;
66298;SDS011;53098;47.658;8.578;2022-07-29T09:19:30;5.55;;;2.22;;
66298;SDS011;53098;47.658;8.578;2022-07-29T09:21:54;6.03;;;2.35;;
66298;SDS011;53098;47.658;8.578;2022-07-29T09:24:19;7.82;;;2.55;;
66298;SDS011;53098;47.658;8.578;2022-07-29T09:26:45;9.73;;;2.33;;
66298;SDS011;53098;47.658;8.578;2022-07-29T09:29:14;7.07;;;2.40;;
66298;SDS011;53098;47.658;8.578;2022-07-29T09:31:40;5.43;;;2.50;;
66298;SDS011;53098;47.658;8.578;2022-07-29T09:34:06;7.10;;;2.20;;
66298;SDS011;53098;47.658;8.578;2022-07-29T09:36:42;7.07;;;2.33;;
66298;SDS011;53098;47.658;8.578;2022-07-29T09:39:07;6.72;;;2.38;;
66298;SDS011;53098;47.658;8.578;2022-07-29T09:41:49;9.43;;;2.80;;
66298;SDS011;53098;47.658;8.578;2022-07-29T09:44:15;7.88;;;2.50;;
66298;SDS011;53098;47.658;8.578;2022-07-29T09:46:52;9.93;;;3.33;;
66298;SDS011;53098;47.658;8.578;2022-07-29T09:49:17;9.13;;;3.15;;
66298;SDS011;53098;47.658;8.578;2022-07-29T09:51:43;6.55;;;2.58;;
66298;SDS011;53098;47.658;8.578;2022-07-29T09:54:21;7.87;;;2.60;;
66298;SDS011;53098;47.658;8.578;2022-07-29T09:56:46;9.82;;;2.60;;
66298;SDS011;53098;47.658;8.578;2022-07-29T09:59:11;6.43;;;2.90;;
66298;SDS011;53098;47.658;8.578;2022-07-29T10:01:37;6.23;;;2.80;;
66298;SDS011;53098;47.658;8.578;2022-07-29T10:04:02;11.05;;;3.10;;
66298;SDS011;53098;47.658;8.578;2022-07-29T10:06:27;5.97;;;2.70;;
66298;SDS011;53098;47.658;8.578;2022-07-29T10:08:53;8.20;;;3.20;;
66298;SDS011;53098;47.658;8.578;2022-07-29T10:11:19;7.60;;;2.33;;
66298;SDS011;53098;47.658;8.578;2022-07-29T10:13:47;8.20;;;2.95;;
66298;SDS011;53098;47.658;8.578;2022-07-29T10:16:13;7.43;;;3.15;;
66298;SDS011;53098;47.658;8.578;2022-07-29T10:18:39;6.45;;;3.00;;
66298;SDS011;53098;47.658;8.578;2022-07-29T10:21:05;8.80;;;3.00;;
66298;SDS011;53098;47.658;8.578;2022-07-29T10:23:30;9.20;;;3.00;;
66298;SDS011;53098;47.658;8.578;2022-07-29T10:25:56;9.87;;;2.80;;
66298;SDS011;53098;47.658;8.578;2022-07-29T10:28:21;8.80;;;3.42;;
66298;SDS011;53098;47.658;8.578;2022-07-29T10:30:48;7.95;;;3.17;;
66298;SDS011;53098;47.658;8.578;2022-07-29T10:33:21;10.30;;;2.85;;
66298;SDS011;53098;47.658;8.578;2022-07-29T10:43:28;10.60;;;2.77;;
66298;SDS011;53098;47.658;8.578;2022-07-29T10:45:55;9.07;;;2.72;;
66298;SDS011;53098;47.658;8.578;2022-07-29T10:48:21;8.77;;;3.10;;
66298;SDS011;53098;47.658;8.578;2022-07-29T10:50:57;4.95;;;2.22;;
66298;SDS011;53098;47.658;8.578;2022-07-29T10:53:23;4.97;;;2.45;;
66298;SDS011;53098;47.658;8.578;2022-07-29T10:55:48;6.57;;;2.55;;
66298;SDS011;53098;47.658;8.578;2022-07-29T10:58:17;6.13;;;2.20;;
66298;SDS011;53098;47.658;8.578;2022-07-29T11:00:42;4.53;;;2.30;;
66298;SDS011;53098;47.658;8.578;2022-07-29T11:03:08;6.22;;;2.55;;
66298;SDS011;53098;47.658;8.578;2022-07-29T11:08:18;6.35;;;2.47;;
66298;SDS011;53098;47.658;8.578;2022-07-29T11:10:44;5.80;;;2.15;;
66298;SDS011;53098;47.658;8.578;2022-07-29T11:13:09;7.97;;;2.60;;
66298;SDS011;53098;47.658;8.578;2022-07-29T11:15:53;5.90;;;2.40;;
66298;SDS011;53098;47.658;8.578;2022-07-29T11:18:19;5.70;;;2.28;;
66298;SDS011;53098;47.658;8.578;2022-07-29T11:20:45;5.72;;;2.58;;
66298;SDS011;53098;47.658;8.578;2022-07-29T11:23:18;7.10;;;2.45;;
66298;SDS011;53098;47.658;8.578;2022-07-29T11:25:43;4.43;;;2.03;;
66298;SDS011;53098;47.658;8.578;2022-07-29T11:28:10;6.47;;;2.20;;
66298;SDS011;53098;47.658;8.578;2022-07-29T11:33:26;5.60;;;2.15;;
66298;SDS011;53098;47.658;8.578;2022-07-29T11:36:25;7.30;;;2.00;;
66298;SDS011;53098;47.658;8.578;2022-07-29T11:38:43;4.70;;;2.03;;
66298;SDS011;53098;47.658;8.578;2022-07-29T11:43:46;4.80;;;2.22;;
66298;SDS011;53098;47.658;8.578;2022-07-29T11:46:12;5.38;;;2.17;;
66298;SDS011;53098;47.658;8.578;2022-07-29T11:48:40;4.18;;;2.00;;
66298;SDS011;53098;47.658;8.578;2022-07-29T11:51:09;4.13;;;2.00;;
66298;SDS011;53098;47.658;8.578;2022-07-29T11:53:34;5.65;;;1.85;;
66298;SDS011;53098;47.658;8.578;2022-07-29T11:56:00;6.90;;;2.50;;
66298;SDS011;53098;47.658;8.578;2022-07-29T11:58:26;5.15;;;2.38;;
66298;SDS011;53098;47.658;8.578;2022-07-29T12:00:53;8.00;;;2.30;;
66298;SDS011;53098;47.658;8.578;2022-07-29T12:03:25;5.00;;;2.30;;
66298;SDS011;53098;47.658;8.578;2022-07-29T12:05:51;7.28;;;2.30;;
66298;SDS011;53098;47.658;8.578;2022-07-29T12:08:20;9.00;;;2.60;;
66298;SDS011;53098;47.658;8.578;2022-07-29T12:10:46;7.25;;;2.30;;
66298;SDS011;53098;47.658;8.578;2022-07-29T12:13:12;6.35;;;1.92;;
66298;SDS011;53098;47.658;8.578;2022-07-29T12:15:38;6.07;;;2.40;;
66298;SDS011;53098;47.658;8.578;2022-07-29T12:18:14;5.28;;;2.38;;
66298;SDS011;53098;47.658;8.578;2022-07-29T12:20:39;4.97;;;2.03;;
66298;SDS011;53098;47.658;8.578;2022-07-29T12:23:05;6.97;;;2.03;;
66298;SDS011;53098;47.658;8.578;2022-07-29T12:25:32;5.82;;;1.90;;
66298;SDS011;53098;47.658;8.578;2022-07-29T12:28:02;6.63;;;2.28;;
66298;SDS011;53098;47.658;8.578;2022-07-29T12:30:35;5.10;;;2.10;;
66298;SDS011;53098;47.658;8.578;2022-07-29T12:33:01;5.20;;;1.95;;
66298;SDS011;53098;47.658;8.578;2022-07-29T12:35:26;5.50;;;2.15;;
66298;SDS011;53098;47.658;8.578;2022-07-29T12:37:52;4.88;;;2.10;;
66298;SDS011;53098;47.658;8.578;2022-07-29T12:40:17;8.45;;;2.75;;
66298;SDS011;53098;47.658;8.578;2022-07-29T12:45:30;5.95;;;1.63;;
66298;SDS011;53098;47.658;8.578;2022-07-29T12:47:59;3.28;;;1.60;;
66298;SDS011;53098;47.658;8.578;2022-07-29T12:50:24;3.85;;;1.60;;
66298;SDS011;53098;47.658;8.578;2022-07-29T12:52:50;6.65;;;1.33;;
66298;SDS011;53098;47.658;8.578;2022-07-29T12:55:15;3.85;;;1.52;;
66298;SDS011;53098;47.658;8.578;2022-07-29T12:57:47;8.70;;;1.60;;
66298;SDS011;53098;47.658;8.578;2022-07-29T13:00:13;4.32;;;1.40;;
66298;SDS011;53098;47.658;8.578;2022-07-29T13:02:40;5.05;;;1.73;;
66298;SDS011;53098;47.658;8.578;2022-07-29T13:05:05;2.35;;;1.33;;
66298;SDS011;53098;47.658;8.578;2022-07-29T13:07:32;4.88;;;1.58;;
66298;SDS011;53098;47.658;8.578;2022-07-29T13:12:36;8.50;;;1.52;;
66298;SDS011;53098;47.658;8.578;2022-07-29T13:15:11;4.47;;;1.60;;
66298;SDS011;53098;47.658;8.578;2022-07-29T13:17:39;5.90;;;1.60;;
66298;SDS011;53098;47.658;8.578;2022-07-29T13:20:06;4.35;;;1.65;;
66298;SDS011;53098;47.658;8.578;2022-07-29T13:22:31;5.18;;;1.73;;
66298;SDS011;53098;47.658;8.578;2022-07-29T13:24:57;8.00;;;2.07;;
66298;SDS011;53098;47.658;8.578;2022-07-29T13:27:24;7.07;;;1.70;;
66298;SDS011;53098;47.658;8.578;2022-07-29T13:29:49;11.07;;;2.50;;
66298;SDS011;53098;47.658;8.578;2022-07-29T13:32:15;6.53;;;1.65;;
66298;SDS011;53098;47.658;8.578;2022-07-29T13:34:40;4.73;;;1.77;;
66298;SDS011;53098;47.658;8.578;2022-07-29T13:37:05;5.53;;;1.80;;
66298;SDS011;53098;47.658;8.578;2022-07-29T13:39:30;7.43;;;1.97;;
66298;SDS011;53098;47.658;8.578;2022-07-29T13:41:56;6.50;;;2.03;;
66298;SDS011;53098;47.658;8.578;2022-07-29T13:44:21;4.18;;;1.73;;
66298;SDS011;53098;47.658;8.578;2022-07-29T13:46:46;4.90;;;1.70;;
66298;SDS011;53098;47.658;8.578;2022-07-29T13:49:12;5.20;;;1.97;;
66298;SDS011;53098;47.658;8.578;2022-07-29T13:51:37;5.83;;;2.20;;
66298;SDS011;53098;47.658;8.578;2022-07-29T13:54:03;3.47;;;1.83;;
66298;SDS011;53098;47.658;8.578;2022-07-29T13:56:28;4.72;;;2.15;;
66298;SDS011;53098;47.658;8.578;2022-07-29T13:58:53;4.70;;;1.97;;
66298;SDS011;53098;47.658;8.578;2022-07-29T14:01:19;6.70;;;1.67;;
66298;SDS011;53098;47.658;8.578;2022-07-29T14:03:44;7.30;;;1.75;;
66298;SDS011;53098;47.658;8.578;2022-07-29T14:06:09;5.90;;;1.77;;
66298;SDS011;53098;47.658;8.578;2022-07-29T14:08:35;4.87;;;1.70;;
66298;SDS011;53098;47.658;8.578;2022-07-29T14:11:00;5.93;;;1.90;;
66298;SDS011;53098;47.658;8.578;2022-07-29T14:13:25;5.40;;;1.80;;
66298;SDS011;53098;47.658;8.578;2022-07-29T14:15:50;3.47;;;1.80;;
66298;SDS011;53098;47.658;8.578;2022-07-29T14:18:16;5.60;;;1.98;;
66298;SDS011;53098;47.658;8.578;2022-07-29T14:20:41;5.03;;;1.80;;
66298;SDS011;53098;47.658;8.578;2022-07-29T14:23:06;7.95;;;1.83;;
66298;SDS011;53098;47.658;8.578;2022-07-29T14:25:32;9.00;;;2.07;;
66298;SDS011;53098;47.658;8.578;2022-07-29T14:27:57;6.67;;;2.10;;
66298;SDS011;53098;47.658;8.578;2022-07-29T14:30:22;3.67;;;1.58;;
66298;SDS011;53098;47.658;8.578;2022-07-29T14:32:48;7.28;;;1.65;;
66298;SDS011;53098;47.658;8.578;2022-07-29T14:35:13;6.18;;;1.65;;
66298;SDS011;53098;47.658;8.578;2022-07-29T14:37:39;7.30;;;1.67;;
66298;SDS011;53098;47.658;8.578;2022-07-29T14:40:04;6.05;;;1.92;;
66298;SDS011;53098;47.658;8.578;2022-07-29T14:42:30;6.68;;;2.08;;
66298;SDS011;53098;47.658;8.578;2022-07-29T14:44:55;5.30;;;1.80;;
66298;SDS011;53098;47.658;8.578;2022-07-29T14:47:20;3.97;;;1.87;;
66298;SDS011;53098;47.658;8.578;2022-07-29T14:49:46;4.53;;;1.85;;
66298;SDS011;53098;47.658;8.578;2022-07-29T14:52:11;5.27;;;1.63;;
66298;SDS011;53098;47.658;8.578;2022-07-29T14:54:36;5.23;;;1.77;;
66298;SDS011;53098;47.658;8.578;2022-07-29T14:57:02;4.97;;;1.77;;
66298;SDS011;53098;47.658;8.578;2022-07-29T14:59:27;6.55;;;1.77;;
66298;SDS011;53098;47.658;8.578;2022-07-29T15:01:52;7.17;;;2.10;;
66298;SDS011;53098;47.658;8.578;2022-07-29T15:04:17;7.07;;;2.30;;
66298;SDS011;53098;47.658;8.578;2022-07-29T15:06:43;5.37;;;1.90;;
66298;SDS011;53098;47.658;8.578;2022-07-29T15:09:08;7.50;;;1.80;;
66298;SDS011;53098;47.658;8.578;2022-07-29T15:11:33;3.17;;;1.63;;
66298;SDS011;53098;47.658;8.578;2022-07-29T15:13:59;4.93;;;1.60;;
66298;SDS011;53098;47.658;8.578;2022-07-29T15:16:24;7.37;;;1.37;;
66298;SDS011;53098;47.658;8.578;2022-07-29T15:18:49;5.75;;;1.75;;
66298;SDS011;53098;47.658;8.578;2022-07-29T15:21:15;7.40;;;2.08;;